| time (UTC) | temp C | wind direction | speed KPH | gust KPH | rain 1hr cm | rain 24hr cm | rain mn cm | humidity % | barometer mb |
| 20260502214135 | 18 | 17 | 9.7 | 12.9 | 0.00 | 0.00 | 0.00 | 32 | |
| 20260502204542 | 17 | 300 | 6.4 | 9.7 | 0.00 | 0.00 | 0.00 | 36 | |
| 20260502200802 | 17 | 55 | 9.7 | 11.3 | 0.00 | 0.00 | 0.00 | 36 | |
| 20260502195823 | 17 | 337 | 9.7 | 11.3 | 0.00 | 0.00 | 0.00 | 37 | |
| 20260502194521 | 17 | 347 | 11.3 | 12.9 | 0.00 | 0.00 | 0.00 | 37 | |
| 20260502193528 | 17 | 26 | 8.0 | 11.3 | 0.00 | 0.00 | 0.00 | 38 | |
| 20260502192447 | 17 | 43 | 6.4 | 11.3 | 0.00 | 0.00 | 0.00 | 37 | |
| 20260502191456 | 17 | 87 | 3.2 | 3.2 | 0.00 | 0.00 | 0.00 | 36 | |
| 20260502190432 | 17 | 74 | 3.2 | 4.8 | 0.00 | 0.00 | 0.00 | 35 | |
| 20260502185703 | 16 | 318 | 8.0 | 11.3 | 0.00 | 0.00 | 0.00 | 38 | |
| 20260502184225 | 17 | 283 | 8.0 | 11.3 | 0.00 | 0.00 | 0.00 | 38 | |
| 20260502183217 | 16 | 325 | 4.8 | 4.8 | 0.00 | 0.00 | 0.00 | 41 | |
| 20260502182136 | 16 | 45 | 4.8 | 4.8 | 0.00 | 0.00 | 0.00 | 44 | |
| 20260502181112 | 16 | 268 | 9.7 | 11.3 | 0.00 | 0.00 | 0.00 | 40 | |
| 20260502180120 | 15 | 30 | 6.4 | 8.0 | 0.00 | 0.00 | 0.00 | 40 | |
| 20260502170109 | 14 | 109 | 1.6 | 1.6 | 0.00 | 0.00 | 0.00 | 43 | |
| 20260502163943 | 12 | 108 | 1.6 | 1.6 | 0.00 | 0.00 | 0.00 | 46 | |
| 20260502162935 | 12 | 101 | 1.6 | 3.2 | 0.00 | 0.00 | 0.00 | 51 | |
| 20260502161929 | 11 | 94 | 3.2 | 4.8 | 0.00 | 0.00 | 0.00 | 51 | |
| 20260502160920 | 11 | 47 | 4.8 | 4.8 | 0.00 | 0.00 | 0.00 | 48 | |
| 20260502151809 | 9 | 344 | 1.6 | 1.6 | 0.00 | 0.00 | 0.00 | 63 | |
| 20260502150952 | 9 | 64 | 3.2 | 4.8 | 0.00 | 0.00 | 0.00 | 58 | |
| 20260502130152 | 6 | 108 | 3.2 | 3.2 | 0.00 | 0.00 | 0.00 | 51 | |
| 20260502123220 | 6 | 114 | 3.2 | 3.2 | 0.00 | 0.00 | 0.00 | 49 | |
| 20260502122216 | 6 | 110 | 4.8 | 4.8 | 0.00 | 0.00 | 0.00 | 51 | |
| 20260502121201 | 6 | 97 | 3.2 | 4.8 | 0.00 | 0.00 | 0.00 | 48 | |
| 20260502120152 | 6 | 130 | 4.8 | 4.8 | 0.00 | 0.00 | 0.00 | 50 | |
| 20260502115150 | 6 | 100 | 1.6 | 3.2 | 0.00 | 0.00 | 0.00 | 50 | |
| 20260502114122 | 6 | 108 | 3.2 | 3.2 | 0.00 | 0.00 | 0.00 | 52 | |
| 20260502113112 | 6 | 107 | 3.2 | 3.2 | 0.00 | 0.00 | 0.00 | 51 | |
| 20260502112104 | 7 | 110 | 1.6 | 3.2 | 0.00 | 0.00 | 0.00 | 48 | |
| 20260502111056 | 6 | 105 | 4.8 | 4.8 | 0.00 | 0.00 | 0.00 | 50 | |
| 20260502110105 | 6 | 126 | 0.0 | 1.6 | 0.00 | 0.00 | 0.00 | 50 | |
| 20260502105059 | 7 | 127 | 1.6 | 1.6 | 0.00 | 0.00 | 0.00 | 48 | |
| 20260502104104 | 7 | 97 | 8.0 | 9.7 | 0.00 | 0.00 | 0.00 | 48 | |
| 20260502103059 | 7 | 102 | 8.0 | 9.7 | 0.00 | 0.00 | 0.00 | 47 | |
| 20260502102104 | 6 | 99 | 8.0 | 9.7 | 0.00 | 0.00 | 0.00 | 48 | |
| 20260502101119 | 7 | 94 | 8.0 | 9.7 | 0.00 | 0.00 | 0.00 | 47 | |
| 20260502100104 | 7 | 109 | 9.7 | 9.7 | 0.00 | 0.00 | 0.00 | 48 | |
| 20260502091056 | 8 | 106 | 6.4 | 8.0 | 0.00 | 0.00 | 0.00 | 46 | |
| 20260502090124 | 8 | 103 | 4.8 | 4.8 | 0.00 | 0.00 | 0.00 | 45 | |
| 20260502080105 | 8 | 108 | 6.4 | 8.0 | 0.00 | 0.00 | 0.00 | 44 | |
| 20260502071118 | 8 | 91 | 4.8 | 4.8 | 0.00 | 0.00 | 0.00 | 45 | |
| 20260502070049 | 9 | 114 | 4.8 | 4.8 | 0.00 | 0.00 | 0.00 | 44 | |
| 20260502065024 | 9 | 91 | 9.7 | 9.7 | 0.00 | 0.00 | 0.00 | 43 | |
| 20260502064032 | 8 | 127 | 8.0 | 11.3 | 0.00 | 0.00 | 0.00 | 45 | |
| 20260502063030 | 10 | 81 | 4.8 | 4.8 | 0.00 | 0.00 | 0.00 | 41 | |
| 20260502062153 | 8 | 117 | 9.7 | 9.7 | 0.00 | 0.00 | 0.00 | 45 | |
| 20260502061015 | 8 | 60 | 12.9 | 12.9 | 0.00 | 0.00 | 0.00 | 46 | |
| 20260502060111 | 8 | 66 | 11.3 | 16.1 | 0.00 | 0.00 | 0.00 | 48 | |
| 20260502054904 | 11 | 102 | 6.4 | 8.0 | 0.00 | 0.00 | 0.00 | 37 | |
| 20260502053840 | 12 | 101 | 8.0 | 9.7 | 0.00 | 0.00 | 0.00 | 36 | |
| 20260502052832 | 12 | 88 | 16.1 | 16.1 | 0.00 | 0.00 | 0.00 | 34 | |
| 20260502051828 | 12 | 94 | 14.5 | 17.7 | 0.00 | 0.00 | 0.00 | 34 | |
| 20260502050917 | 11 | 101 | 12.9 | 12.9 | 0.00 | 0.00 | 0.00 | 37 | |
| 20260502045928 | 11 | 104 | 9.7 | 11.3 | 0.00 | 0.00 | 0.00 | 39 | |
| 20260502044631 | 11 | 115 | 9.7 | 11.3 | 0.00 | 0.00 | 0.00 | 38 | |
| 20260502043642 | 12 | 111 | 11.3 | 12.9 | 0.00 | 0.00 | 0.00 | 37 | |
| 20260502042552 | 12 | 91 | 14.5 | 14.5 | 0.00 | 0.00 | 0.00 | 37 | |
| 20260502041601 | 12 | 94 | 9.7 | 11.3 | 0.00 | 0.00 | 0.00 | 38 | |
| 20260502040558 | 12 | 98 | 11.3 | 12.9 | 0.00 | 0.00 | 0.00 | 41 | |
| 20260502035621 | 12 | 94 | 9.7 | 11.3 | 0.00 | 0.00 | 0.00 | 41 | |
| 20260502034612 | 12 | 97 | 9.7 | 11.3 | 0.00 | 0.00 | 0.00 | 40 | |
| 20260502033601 | 12 | 103 | 11.3 | 12.9 | 0.00 | 0.00 | 0.00 | 40 | |
| 20260502032553 | 13 | 98 | 9.7 | 12.9 | 0.00 | 0.00 | 0.00 | 39 | |
| 20260502031621 | 13 | 110 | 9.7 | 11.3 | 0.00 | 0.00 | 0.00 | 39 | |
| 20260502030555 | 14 | 80 | 11.3 | 14.5 | 0.00 | 0.00 | 0.00 | 36 | |
| 20260502025642 | 15 | 113 | 8.0 | 9.7 | 0.00 | 0.00 | 0.00 | 35 | |
| 20260502024615 | 15 | 107 | 8.0 | 9.7 | 0.00 | 0.00 | 0.00 | 33 | |
| 20260502023528 | 18 | 106 | 8.0 | 8.0 | 0.00 | 0.00 | 0.00 | 26 | |
| 20260502022521 | 18 | 110 | 4.8 | 4.8 | 0.00 | 0.00 | 0.00 | 24 | |
| 20260502021724 | 19 | 116 | 1.6 | 1.6 | 0.00 | 0.00 | 0.00 | 19 | |
| 20260502020537 | 20 | 122 | 1.6 | 3.2 | 0.00 | 0.00 | 0.00 | 24 | |
| 20260502013859 | 21 | 126 | 3.2 | 3.2 | 0.00 | 0.00 | 0.00 | 20 | |
| 20260502012939 | 21 | 128 | 1.6 | 1.6 | 0.00 | 0.00 | 0.00 | 20 | |
| 20260502011826 | 21 | 154 | 3.2 | 3.2 | 0.00 | 0.00 | 0.00 | 21 | |
| 20260502010904 | 22 | 116 | 3.2 | 3.2 | 0.00 | 0.00 | 0.00 | 20 | |
| 20260502005145 | 22 | 178 | 8.0 | 9.7 | 0.00 | 0.00 | 0.00 | 22 | |
| 20260502003841 | 22 | 128 | 3.2 | 3.2 | 0.00 | 0.00 | 0.00 | 22 | |
| 20260502002212 | 21 | 194 | 4.8 | 4.8 | 0.00 | 0.00 | 0.00 | 23 | |
| 20260502001040 | 22 | 124 | 3.2 | 3.2 | 0.00 | 0.00 | 0.00 | 25 | |
| 20260501234537 | 21 | 71 | 3.2 | 3.2 | 0.00 | 0.00 | 0.00 | 24 | |
| 20260501233321 | 21 | 198 | 8.0 | 9.7 | 0.00 | 0.00 | 0.00 | 25 | |
| 20260501232345 | 21 | 177 | 9.7 | 11.3 | 0.00 | 0.00 | 0.00 | 25 | |
| 20260501231025 | 21 | 156 | 3.2 | 3.2 | 0.00 | 0.00 | 0.00 | 24 | |
| 20260501230040 | 21 | 337 | 3.2 | 3.2 | 0.00 | 0.00 | 0.00 | 26 | |
| 20260501224952 | 21 | 67 | 4.8 | 8.0 | 0.00 | 0.00 | 0.00 | 25 | |
| 20260501223930 | 20 | 13 | 3.2 | 3.2 | 0.00 | 0.00 | 0.00 | 27 | |
| 20260501222923 | 21 | 126 | 0.0 | 1.6 | 0.00 | 0.00 | 0.00 | 26 | |
| 20260501221929 | 21 | 178 | 9.7 | 12.9 | 0.00 | 0.00 | 0.00 | 25 | |
| 20260501220905 | 21 | 101 | 0.0 | 3.2 | 0.00 | 0.00 | 0.00 | 25 | |
| 20260501215938 | 21 | 113 | 4.8 | 4.8 | 0.00 | 0.00 | 0.00 | 25 |